.
WxDataArchive / Data Records for 2006-10-15
2006-10-14 October 2006 2006-10-16

Data Records for Sunday, 15 October 2006

Time	Temp	Chill	HIndex	Humid	Dewpt	 Wind 	HiWind	WindDir	Rain 	Barom 
-----	----	-----	------	-----	-----	------	------	-------	-----	----- 
00:00	39.1	39.1	39.1	62	27.2	0	1	248	0.00	29.981 
00:05	39.1	39.1	39.1	62	27.2	0	1	248	0.00	29.981 
00:10	39.1	39.1	39.1	63	27.6	0	1	248	0.00	29.981 
00:15	39.1	39.1	39.1	62	27.2	0	1	248	0.00	29.982 
00:20	38.9	38.9	38.9	63	27.4	0	1	248	0.00	29.982 
00:25	38.6	38.6	38.6	64	27.5	0	0	---	0.00	29.982 
00:30	38.5	38.5	38.5	64	27.4	0	1	248	0.00	29.976 
00:35	38.2	38.2	38.2	64	27.1	0	0	---	0.00	29.976 
00:40	38.0	38.0	38.0	66	27.7	0	0	---	0.00	29.976 
00:45	37.8	37.8	37.8	66	27.5	0	1	248	0.00	29.981 
00:50	37.8	37.8	37.8	66	27.5	0	1	248	0.00	29.981 
00:55	37.6	37.6	37.6	66	27.3	0	1	248	0.00	29.981 
01:00	37.8	37.8	37.8	66	27.5	0	1	248	0.00	29.981 
01:05	37.6	37.6	37.6	67	27.7	0	1	248	0.00	29.981 
01:10	37.6	37.6	37.6	66	27.3	0	1	248	0.00	29.981 
01:15	37.8	37.8	37.8	66	27.5	0	1	248	0.00	29.980 
01:20	37.8	37.8	37.8	66	27.5	0	1	248	0.00	29.980 
01:25	37.6	37.6	37.6	67	27.7	0	1	248	0.00	29.980 
01:30	37.5	37.5	37.5	67	27.6	0	1	248	0.00	29.985 
01:35	37.3	37.3	37.3	67	27.4	0	1	248	0.00	29.985 
01:40	37.3	37.3	37.3	67	27.4	0	1	248	0.00	29.985 
01:45	37.2	37.2	37.2	67	27.3	0	1	248	0.00	29.988 
01:50	37.2	37.2	37.2	67	27.3	0	1	248	0.00	29.988 
01:55	37.2	37.2	37.2	68	27.6	0	1	248	0.00	29.988 
02:00	37.0	37.0	37.0	68	27.4	0	1	248	0.00	29.994 
02:05	36.9	36.9	36.9	68	27.3	0	1	248	0.00	29.994 
02:10	36.9	36.9	36.9	69	27.7	0	1	248	0.00	29.994 
02:15	36.8	36.8	36.8	69	27.6	0	1	248	0.00	29.999 
02:20	36.6	36.6	36.6	69	27.4	0	1	248	0.00	29.999 
02:25	36.6	36.6	36.6	69	27.4	0	1	248	0.00	29.999 
02:30	36.5	36.5	36.5	69	27.3	0	1	248	0.00	29.995 
02:35	36.5	36.5	36.5	69	27.3	0	1	248	0.00	29.995 
02:40	36.3	36.3	36.3	70	27.5	0	1	248	0.00	29.995 
02:45	36.2	36.2	36.2	70	27.4	0	1	248	0.00	29.998 
02:50	36.0	36.0	36.0	70	27.2	0	0	---	0.00	29.998 
02:55	35.9	35.9	35.9	71	27.4	0	0	---	0.00	29.998 
03:00	35.8	35.8	35.8	71	27.3	0	0	---	0.00	30.000 
03:05	35.6	35.6	35.6	72	27.5	0	1	248	0.00	30.000 
03:10	35.5	35.5	35.5	72	27.4	0	1	248	0.00	30.000 
03:15	35.5	35.5	35.5	72	27.4	0	1	248	0.00	29.995 
03:20	35.3	35.3	35.3	73	27.5	0	0	---	0.00	29.995 
03:25	35.3	35.3	35.3	73	27.5	0	1	248	0.00	29.995 
03:30	35.3	35.3	35.3	73	27.5	0	0	---	0.00	30.000 
03:35	35.2	35.2	35.2	73	27.4	0	0	---	0.00	30.000 
03:40	35.0	35.0	35.0	73	27.2	0	0	---	0.00	30.000 
03:45	34.9	34.9	34.9	74	27.5	0	0	---	0.00	29.998 
03:50	34.7	34.7	34.7	74	27.3	0	1	248	0.00	29.998 
03:55	34.6	34.6	34.6	75	27.5	0	0	---	0.00	29.998 
04:00	34.3	34.3	34.3	75	27.2	0	0	---	0.00	29.994 
04:05	34.0	34.0	34.0	76	27.2	0	0	---	0.00	29.994 
04:10	33.8	33.8	33.8	76	27.1	0	0	---	0.00	29.994 
04:15	33.7	33.7	33.7	77	27.3	0	0	---	0.00	29.996 
04:20	33.5	33.5	33.5	77	27.1	0	0	---	0.00	29.996 
04:25	33.4	33.4	33.4	78	27.3	0	0	---	0.00	29.996 
04:30	33.1	33.1	33.1	78	27.0	0	0	---	0.00	29.997 
04:35	32.9	32.9	32.9	78	26.8	0	0	---	0.00	29.997 
04:40	32.7	32.7	32.7	79	26.9	0	0	---	0.00	29.997 
04:45	32.5	32.5	32.5	79	26.7	0	0	---	0.00	30.003 
04:50	32.4	32.4	32.4	80	26.9	0	0	---	0.00	30.003 
04:55	32.2	32.2	32.2	80	26.7	0	0	---	0.00	30.003 
05:00	32.1	32.1	32.1	81	26.9	0	0	---	0.00	30.009 
05:05	31.9	31.9	31.9	82	27.0	0	0	---	0.00	30.009 
05:10	31.9	31.9	31.9	82	27.0	0	0	---	0.00	30.009 
05:15	31.8	31.8	31.8	82	26.9	0	0	---	0.00	30.014 
05:20	31.8	31.8	31.8	82	26.9	0	0	---	0.00	30.014 
05:25	31.6	31.6	31.6	83	27.0	0	0	---	0.00	30.014 
05:30	31.5	31.5	31.5	83	26.9	0	0	---	0.00	30.012 
05:35	31.3	31.3	31.3	83	26.7	0	0	---	0.00	30.012 
05:40	31.2	31.2	31.2	84	26.9	0	0	---	0.00	30.012 
05:45	31.0	31.0	31.0	84	26.7	0	0	---	0.00	30.018 
05:50	30.7	30.7	30.7	84	26.4	0	0	---	0.00	30.018 
05:55	30.7	30.7	30.7	85	26.7	0	0	---	0.00	30.018 
06:00	30.7	30.7	30.7	85	26.7	0	0	---	0.00	30.031 
06:05	30.6	30.6	30.6	85	26.6	0	0	---	0.00	30.031 
06:10	30.7	30.7	30.7	86	27.0	0	0	---	0.00	30.031 
06:15	30.7	30.7	30.7	85	26.7	0	0	---	0.00	30.036 
06:20	30.7	30.7	30.7	86	27.0	0	0	---	0.00	30.036 
06:25	31.0	31.0	31.0	85	27.0	0	1	248	0.00	30.036 
06:30	31.0	31.0	31.0	85	27.0	0	1	248	0.00	30.044 
06:35	31.3	31.3	31.3	85	27.3	0	1	248	0.00	30.044 
06:40	31.5	31.5	31.5	84	27.2	0	0	---	0.00	30.044 
06:45	31.5	31.5	31.5	84	27.2	0	1	248	0.00	30.048 
06:50	31.5	31.5	31.5	84	27.2	0	0	---	0.00	30.048 
06:55	31.5	31.5	31.5	84	27.2	0	0	---	0.00	30.048 
07:00	31.3	31.3	31.3	83	26.7	0	0	---	0.00	30.050 
07:05	31.0	31.0	31.0	84	26.7	0	0	---	0.00	30.050 
07:10	30.9	30.9	30.9	84	26.6	0	0	---	0.00	30.050 
07:15	30.7	30.7	30.7	84	26.4	0	0	---	0.00	30.055 
07:20	30.4	30.4	30.4	84	26.2	0	0	---	0.00	30.055 
07:25	30.3	30.3	30.3	85	26.3	0	0	---	0.00	30.055 
07:30	30.1	30.1	30.1	86	26.4	0	0	---	0.00	30.053 
07:35	30.0	30.0	30.0	86	26.3	0	0	---	0.00	30.053 
07:40	29.8	29.8	29.8	86	26.1	0	0	---	0.00	30.053 
07:45	29.7	29.7	29.7	87	26.3	0	0	---	0.00	30.052 
07:50	29.5	29.5	29.5	87	26.1	0	0	---	0.00	30.052 
07:55	29.4	29.4	29.4	87	26.0	0	0	---	0.00	30.052 
08:00	29.3	29.3	29.3	87	25.9	0	0	---	0.00	30.059 
08:05	29.1	29.1	29.1	87	25.7	0	0	---	0.00	30.059 
08:10	29.1	29.1	29.1	87	25.7	0	0	---	0.00	30.059 
08:15	29.1	29.1	29.1	88	26.0	0	0	---	0.00	30.067 
08:20	29.1	29.1	29.1	88	26.0	0	0	---	0.00	30.067 
08:25	29.4	29.4	29.4	89	26.6	0	0	---	0.00	30.067 
08:30	29.7	29.7	29.7	89	26.9	0	0	---	0.00	30.072 
08:35	30.0	30.0	30.0	90	27.4	0	0	---	0.00	30.072 
08:40	30.4	30.4	30.4	90	27.8	0	0	---	0.00	30.072 
08:45	31.2	31.2	31.2	90	28.6	0	1	248	0.00	30.082 
08:50	31.9	31.9	31.9	88	28.8	0	1	248	0.00	30.082 
08:55	32.7	32.7	32.7	85	28.7	0	1	248	0.00	30.082 
09:00	33.2	33.2	33.2	82	28.3	0	1	248	0.00	30.085 
09:05	33.8	33.8	33.8	80	28.3	0	1	248	0.00	30.085 
09:10	34.4	34.4	34.4	79	28.6	0	1	248	0.00	30.085 
09:15	35.0	35.0	35.0	78	28.8	0	1	248	0.00	30.093 
09:20	35.6	35.6	35.6	77	29.1	0	1	248	0.00	30.093 
09:25	36.3	36.3	36.3	76	29.5	0	1	248	0.00	30.093 
09:30	37.0	37.0	37.0	74	29.5	0	1	248	0.00	30.103 
09:35	37.8	37.8	37.8	72	29.6	0	1	248	0.00	30.103 
09:40	38.5	38.5	38.5	69	29.2	0	2	248	0.00	30.103 
09:45	39.5	39.5	39.5	69	30.2	1	2	248	0.00	30.103 
09:50	40.3	40.3	40.3	66	29.9	1	2	248	0.00	30.103 
09:55	41.2	41.2	41.2	64	30.0	1	3	248	0.00	30.103 
10:00	42.1	42.1	42.1	63	30.4	1	3	248	0.00	30.107 
10:05	42.5	42.5	42.5	61	30.0	1	2	248	0.00	30.107 
10:10	42.9	42.9	42.9	59	29.6	1	3	248	0.00	30.107 
10:15	43.3	43.3	43.3	59	29.9	1	2	248	0.00	30.102 
10:20	43.6	43.6	43.6	57	29.4	1	4	248	0.00	30.102 
10:25	44.1	44.1	44.1	58	30.3	1	3	248	0.00	30.102 
10:30	44.5	44.5	44.5	55	29.3	2	5	248	0.00	30.103 
10:35	44.8	44.8	44.8	55	29.6	1	4	248	0.00	30.103 
10:40	44.9	44.9	44.9	54	29.3	1	3	248	0.00	30.103 
10:45	44.8	44.8	44.8	54	29.2	1	3	248	0.00	30.106 
10:50	44.6	44.6	44.6	54	29.0	2	3	248	0.00	30.106 
10:55	45.1	45.1	45.1	59	31.6	0	2	248	0.00	30.106 
11:00	45.8	45.8	45.8	55	30.6	1	3	248	0.00	30.107 
11:05	46.5	46.5	46.5	53	30.3	1	4	248	0.00	30.107 
11:10	47.3	47.3	47.3	50	29.6	2	5	248	0.00	30.107 
11:15	47.6	47.6	47.6	52	30.9	1	3	248	0.00	30.108 
11:20	47.7	47.7	47.7	52	30.9	1	3	248	0.00	30.108 
11:25	47.6	47.6	47.6	48	28.9	2	7	248	0.00	30.108 
11:30	47.9	47.9	47.9	50	30.2	1	3	248	0.00	30.104 
11:35	48.0	48.0	48.0	48	29.3	1	4	248	0.00	30.104 
11:40	48.5	48.5	48.5	48	29.7	1	4	248	0.00	30.104 
11:45	48.6	48.6	48.6	48	29.8	1	5	248	0.00	30.095 
11:50	48.8	48.8	48.8	45	28.4	2	5	248	0.00	30.095 
11:55	49.2	49.2	49.2	43	27.7	1	3	248	0.00	30.095 
12:00	49.5	49.5	49.5	42	27.4	2	4	248	0.00	30.090 
12:05	49.9	49.9	49.9	43	28.3	3	7	248	0.00	30.090 
12:10	50.4	50.4	50.4	42	28.2	2	5	248	0.00	30.090 
12:15	50.7	50.7	50.7	41	27.9	2	5	248	0.00	30.080 
12:20	51.1	51.1	51.1	39	27.0	2	5	248	0.00	30.080 
12:25	51.3	51.3	51.3	40	27.8	2	5	270	0.00	30.080 
12:30	51.4	51.4	51.4	41	28.5	2	6	270	0.00	30.080 
12:35	51.4	51.4	51.4	41	28.5	2	4	248	0.00	30.080 
12:40	51.4	51.4	51.4	39	27.3	2	4	270	0.00	30.080 
12:45	51.7	51.7	51.7	39	27.6	1	3	248	0.00	30.080 
12:50	52.2	52.2	52.2	42	29.8	1	3	270	0.00	30.080 
12:55	52.5	52.5	52.5	41	29.5	2	4	248	0.00	30.080 
13:00	52.5	52.5	52.5	38	27.6	3	6	248	0.00	30.078 
13:05	51.9	51.9	51.9	36	25.8	3	6	248	0.00	30.078 
13:10	51.6	51.6	51.6	38	26.8	2	7	248	0.00	30.078 
13:15	51.4	51.4	51.4	37	26.0	1	3	248	0.00	30.079 
13:20	51.4	51.4	51.4	39	27.3	1	3	248	0.00	30.079 
13:25	51.6	51.6	51.6	41	28.7	2	4	248	0.00	30.079 
13:30	51.3	51.3	51.3	37	25.9	2	4	248	0.00	30.075 
13:35	51.0	51.0	51.0	37	25.7	2	4	248	0.00	30.075 
13:40	50.8	50.8	50.8	38	26.1	1	3	248	0.00	30.075 
13:45	51.0	51.0	51.0	40	27.5	1	3	248	0.00	30.073 
13:50	51.1	51.1	51.1	41	28.2	1	3	248	0.00	30.073 
13:55	52.0	52.0	52.0	37	26.5	2	5	248	0.00	30.073 
14:00	52.6	52.6	52.6	34	25.0	2	4	270	0.00	30.061 
14:05	53.1	53.1	53.1	38	28.2	1	4	292	0.00	30.061 
14:10	53.5	53.5	53.5	37	27.9	1	4	270	0.00	30.061 
14:15	53.5	53.5	53.5	35	26.5	2	9	248	0.00	30.053 
14:20	53.1	53.1	53.1	33	24.8	2	5	248	0.00	30.053 
14:25	52.9	52.9	52.9	33	24.6	1	4	248	0.00	30.053 
14:30	53.3	53.3	53.3	34	25.7	2	6	270	0.00	30.052 
14:35	53.9	53.9	53.9	35	26.9	2	4	248	0.00	30.052 
14:40	54.5	54.5	54.5	33	26.0	2	3	248	0.00	30.052 
14:45	54.2	54.2	54.2	31	24.2	2	3	270	0.00	30.043 
14:50	53.5	53.5	53.5	31	23.6	2	4	270	0.00	30.043 
14:55	53.8	53.8	53.8	35	26.8	2	3	270	0.00	30.043 
15:00	54.2	54.2	54.2	35	27.2	1	3	225	0.00	30.041 
15:05	54.4	54.4	54.4	31	24.4	2	4	270	0.00	30.041 
15:10	54.7	54.7	54.7	32	25.4	2	6	248	0.00	30.041 
15:15	55.3	55.3	55.3	32	26.0	2	4	248	0.00	30.040 
15:20	55.1	55.1	55.1	33	26.5	1	4	248	0.00	30.040 
15:25	54.7	54.7	54.7	32	25.4	2	5	248	0.00	30.040 
15:30	54.2	54.2	54.2	31	24.2	1	4	270	0.00	30.039 
15:35	54.2	54.2	54.2	33	25.7	1	4	270	0.00	30.039 
15:40	54.4	54.4	54.4	32	25.2	2	4	248	0.00	30.039 
15:45	54.4	54.4	54.4	31	24.4	1	4	270	0.00	30.034 
15:50	54.2	54.2	54.2	33	25.7	1	4	270	0.00	30.034 
15:55	53.9	53.9	53.9	32	24.7	0	2	248	0.00	30.034 
16:00	53.8	53.8	53.8	31	23.9	2	4	248	0.00	30.039 
16:05	53.6	53.6	53.6	30	22.9	1	3	248	0.00	30.039 
16:10	53.6	53.6	53.6	30	22.9	2	4	270	0.00	30.039 
16:15	53.8	53.8	53.8	31	23.9	1	5	248	0.00	30.044 
16:20	53.8	53.8	53.8	29	22.3	2	5	248	0.00	30.044 
16:25	53.6	53.6	53.6	30	22.9	2	4	248	0.00	30.044 
16:30	53.6	53.6	53.6	31	23.7	1	4	248	0.00	30.041 
16:35	53.5	53.5	53.5	30	22.8	1	2	248	0.00	30.041 
16:40	53.5	53.5	53.5	29	22.0	2	5	248	0.00	30.041 
16:45	53.6	53.6	53.6	30	22.9	1	4	248	0.00	30.040 
16:50	53.9	53.9	53.9	33	25.5	1	4	248	0.00	30.040 
16:55	54.1	54.1	54.1	33	25.6	1	3	248	0.00	30.040 
17:00	53.8	53.8	53.8	31	23.9	2	4	248	0.00	30.041 
17:05	53.5	53.5	53.5	31	23.6	2	5	248	0.00	30.041 
17:10	53.2	53.2	53.2	32	24.1	1	4	248	0.00	30.041 
17:15	53.1	53.1	53.1	31	23.3	1	4	248	0.00	30.043 
17:20	52.9	52.9	52.9	32	23.9	1	2	248	0.00	30.043 
17:25	52.9	52.9	52.9	33	24.6	1	3	248	0.00	30.043 
17:30	52.9	52.9	52.9	31	23.1	2	4	248	0.00	30.041 
17:35	52.9	52.9	52.9	31	23.1	1	5	248	0.00	30.041 
17:40	52.9	52.9	52.9	34	25.3	1	3	248	0.00	30.041 
17:45	52.9	52.9	52.9	33	24.6	1	2	248	0.00	30.036 
17:50	52.9	52.9	52.9	32	23.9	1	5	248	0.00	30.036 
17:55	52.6	52.6	52.6	33	24.3	1	3	248	0.00	30.036 
18:00	52.3	52.3	52.3	33	24.1	1	7	270	0.00	30.044 
18:05	52.0	52.0	52.0	34	24.5	1	4	248	0.00	30.044 
18:10	51.7	51.7	51.7	35	24.9	1	4	248	0.00	30.044 
18:15	51.6	51.6	51.6	34	24.2	1	4	248	0.00	30.045 
18:20	51.3	51.3	51.3	34	23.9	1	5	248	0.00	30.045 
18:25	51.1	51.1	51.1	36	25.1	1	3	270	0.00	30.045 
18:30	51.0	51.0	51.0	34	23.6	1	4	270	0.00	30.048 
18:35	51.0	51.0	51.0	35	24.3	1	2	270	0.00	30.048 
18:40	50.8	50.8	50.8	35	24.1	0	3	248	0.00	30.048 
18:45	50.7	50.7	50.7	36	24.7	0	1	248	0.00	30.046 
18:50	50.7	50.7	50.7	35	24.1	0	2	248	0.00	30.046 
18:55	50.5	50.5	50.5	35	23.9	0	3	248	0.00	30.046 
19:00	50.4	50.4	50.4	36	24.5	0	1	270	0.00	30.053 
19:05	50.4	50.4	50.4	35	23.8	1	2	270	0.00	30.053 
19:10	50.4	50.4	50.4	36	24.5	0	2	270	0.00	30.053 
19:15	50.2	50.2	50.2	36	24.3	0	1	270	0.00	30.062 
19:20	50.1	50.1	50.1	36	24.2	0	3	270	0.00	30.062 
19:25	50.1	50.1	50.1	36	24.2	0	2	270	0.00	30.062 
19:30	49.9	49.9	49.9	37	24.7	0	2	270	0.00	30.057 
19:35	49.9	49.9	49.9	37	24.7	0	1	270	0.00	30.057 
19:40	49.8	49.8	49.8	37	24.6	0	2	270	0.00	30.057 
19:45	49.8	49.8	49.8	37	24.6	0	1	270	0.00	30.051 
19:50	49.8	49.8	49.8	37	24.6	0	1	270	0.00	30.051 
19:55	49.6	49.6	49.6	38	25.0	0	1	270	0.00	30.051 
20:00	49.6	49.6	49.6	39	25.7	0	1	270	0.00	30.065 
20:05	49.5	49.5	49.5	39	25.6	0	0	---	0.00	30.065 
20:10	49.4	49.4	49.4	39	25.5	0	0	---	0.00	30.065 
20:15	49.1	49.1	49.1	40	25.8	0	0	---	0.00	30.060 
20:20	48.8	48.8	48.8	42	26.7	0	0	---	0.00	30.060 
20:25	48.3	48.3	48.3	44	27.4	0	0	---	0.00	30.060 
20:30	48.0	48.0	48.0	44	27.1	0	0	---	0.00	30.062 
20:35	47.7	47.7	47.7	46	27.9	0	0	---	0.00	30.062 
20:40	47.4	47.4	47.4	48	28.7	0	0	---	0.00	30.062 
20:45	47.3	47.3	47.3	49	29.1	0	0	---	0.00	30.065 
20:50	47.3	47.3	47.3	50	29.6	0	0	---	0.00	30.065 
20:55	47.1	47.1	47.1	48	28.4	0	0	---	0.00	30.065 
21:00	47.3	47.3	47.3	51	30.1	0	0	---	0.00	30.062 
21:05	47.3	47.3	47.3	50	29.6	0	0	---	0.00	30.062 
21:10	47.3	47.3	47.3	53	31.0	0	0	---	0.00	30.062 
21:15	47.1	47.1	47.1	51	29.9	0	0	---	0.00	30.055 
21:20	47.3	47.3	47.3	54	31.5	0	0	---	0.00	30.055 
21:25	47.1	47.1	47.1	52	30.4	0	0	---	0.00	30.055 
21:30	47.0	47.0	47.0	52	30.3	0	0	---	0.00	30.057 
21:35	47.0	47.0	47.0	55	31.7	0	0	---	0.00	30.057 
21:40	47.0	47.0	47.0	57	32.6	0	0	---	0.00	30.057 
21:45	46.8	46.8	46.8	56	31.9	0	0	---	0.00	30.049 
21:50	46.7	46.7	46.7	56	31.8	0	0	---	0.00	30.049 
21:55	46.4	46.4	46.4	57	32.0	0	0	---	0.00	30.049 
22:00	46.2	46.2	46.2	57	31.8	0	0	---	0.00	30.051 
22:05	46.1	46.1	46.1	58	32.2	0	0	---	0.00	30.051 
22:10	46.0	46.0	46.0	60	32.9	0	1	270	0.00	30.051 
22:15	45.8	45.8	45.8	62	33.5	0	0	---	0.00	30.051 
22:20	45.7	45.7	45.7	59	32.2	0	0	---	0.00	30.051 
22:25	45.7	45.7	45.7	62	33.4	0	0	---	0.00	30.051 
22:30	45.7	45.7	45.7	58	31.8	0	1	270	0.00	30.047 
22:35	45.8	45.8	45.8	56	31.0	0	0	---	0.00	30.047 
22:40	46.1	46.1	46.1	56	31.3	0	0	---	0.00	30.047 
22:45	46.2	46.2	46.2	56	31.4	0	0	---	0.00	30.055 
22:50	46.2	46.2	46.2	56	31.4	0	0	---	0.00	30.055 
22:55	46.4	46.4	46.4	54	30.7	0	1	270	0.00	30.055 
23:00	46.5	46.5	46.5	52	29.8	0	1	270	0.00	30.053 
23:05	46.7	46.7	46.7	54	30.9	0	0	---	0.00	30.053 
23:10	46.7	46.7	46.7	55	31.4	0	0	---	0.00	30.053 
23:15	46.8	46.8	46.8	56	31.9	0	0	---	0.00	30.064 
23:20	46.8	46.8	46.8	56	31.9	0	0	---	0.00	30.064 
23:25	46.8	46.8	46.8	56	31.9	0	0	---	0.00	30.064 
23:30	46.8	46.8	46.8	54	31.0	0	0	---	0.00	30.061 
23:35	46.8	46.8	46.8	55	31.5	0	0	---	0.00	30.061 
23:40	46.8	46.8	46.8	55	31.5	0	0	---	0.00	30.061 
23:45	46.8	46.8	46.8	58	32.8	0	0	---	0.00	30.057 
23:50	46.8	46.8	46.8	58	32.8	0	0	---	0.00	30.057 
23:55	46.8	46.8	46.8	59	33.2	0	0	---	0.00	30.057 

CoCoRaHS
IN-AL-39
A2 Web Hosting
Creative Commons License
GoDaddy
Look for:

loaded 2017-10-17 09:24:16 • last modified 2010-11-18 10:43:29
Privacy PolicyDisclaimer
• wx.awcolley.com is powered by PmWiki v.2002016 •
• all content (unless otherwise noted) © 2017 A W Colley